sensor_id;sensor_type;location;lat;lon;timestamp;P1;durP1;ratioP1;P2;durP2;ratioP2
50012;SDS011;35901;48.694;9.476;2023-03-14T00:01:09;0.87;;;0.87;;
50012;SDS011;35901;48.694;9.476;2023-03-14T00:03:36;0.80;;;0.80;;
50012;SDS011;35901;48.694;9.476;2023-03-14T00:06:02;0.90;;;0.90;;
50012;SDS011;35901;48.694;9.476;2023-03-14T00:08:29;0.90;;;0.90;;
50012;SDS011;35901;48.694;9.476;2023-03-14T00:10:54;1.13;;;0.90;;
50012;SDS011;35901;48.694;9.476;2023-03-14T00:13:20;0.80;;;0.80;;
50012;SDS011;35901;48.694;9.476;2023-03-14T00:15:45;0.90;;;0.90;;
50012;SDS011;35901;48.694;9.476;2023-03-14T00:18:11;1.23;;;1.10;;
50012;SDS011;35901;48.694;9.476;2023-03-14T00:20:36;0.83;;;0.83;;
50012;SDS011;35901;48.694;9.476;2023-03-14T00:23:02;0.70;;;0.70;;
50012;SDS011;35901;48.694;9.476;2023-03-14T00:25:28;0.90;;;0.80;;
50012;SDS011;35901;48.694;9.476;2023-03-14T00:27:53;0.90;;;0.90;;
50012;SDS011;35901;48.694;9.476;2023-03-14T00:30:19;0.73;;;0.73;;
50012;SDS011;35901;48.694;9.476;2023-03-14T00:32:45;0.70;;;0.67;;
50012;SDS011;35901;48.694;9.476;2023-03-14T00:35:11;0.87;;;0.87;;
50012;SDS011;35901;48.694;9.476;2023-03-14T00:37:36;0.93;;;0.80;;
50012;SDS011;35901;48.694;9.476;2023-03-14T00:40:04;0.60;;;0.60;;
50012;SDS011;35901;48.694;9.476;2023-03-14T00:42:32;0.70;;;0.70;;
50012;SDS011;35901;48.694;9.476;2023-03-14T00:44:58;0.63;;;0.63;;
50012;SDS011;35901;48.694;9.476;2023-03-14T00:47:23;0.70;;;0.70;;
50012;SDS011;35901;48.694;9.476;2023-03-14T00:49:49;1.27;;;0.87;;
50012;SDS011;35901;48.694;9.476;2023-03-14T00:52:15;0.80;;;0.80;;
50012;SDS011;35901;48.694;9.476;2023-03-14T00:54:40;0.67;;;0.67;;
50012;SDS011;35901;48.694;9.476;2023-03-14T00:57:06;0.53;;;0.53;;
50012;SDS011;35901;48.694;9.476;2023-03-14T00:59:32;1.43;;;0.60;;
50012;SDS011;35901;48.694;9.476;2023-03-14T01:01:57;0.70;;;0.70;;
50012;SDS011;35901;48.694;9.476;2023-03-14T01:04:23;0.80;;;0.80;;
50012;SDS011;35901;48.694;9.476;2023-03-14T01:06:49;0.73;;;0.73;;
50012;SDS011;35901;48.694;9.476;2023-03-14T01:09:14;0.63;;;0.63;;
50012;SDS011;35901;48.694;9.476;2023-03-14T01:11:43;0.80;;;0.80;;
50012;SDS011;35901;48.694;9.476;2023-03-14T01:14:11;0.90;;;0.60;;
50012;SDS011;35901;48.694;9.476;2023-03-14T01:16:37;0.73;;;0.73;;
50012;SDS011;35901;48.694;9.476;2023-03-14T01:19:03;0.80;;;0.80;;
50012;SDS011;35901;48.694;9.476;2023-03-14T01:21:30;0.87;;;0.70;;
50012;SDS011;35901;48.694;9.476;2023-03-14T01:23:58;0.80;;;0.80;;
50012;SDS011;35901;48.694;9.476;2023-03-14T01:26:26;0.97;;;0.97;;
50012;SDS011;35901;48.694;9.476;2023-03-14T01:28:53;1.60;;;0.70;;
50012;SDS011;35901;48.694;9.476;2023-03-14T01:31:20;0.90;;;0.90;;
50012;SDS011;35901;48.694;9.476;2023-03-14T01:33:46;0.70;;;0.70;;
50012;SDS011;35901;48.694;9.476;2023-03-14T01:36:12;0.90;;;0.90;;
50012;SDS011;35901;48.694;9.476;2023-03-14T01:38:39;0.83;;;0.70;;
50012;SDS011;35901;48.694;9.476;2023-03-14T01:41:09;0.80;;;0.80;;
50012;SDS011;35901;48.694;9.476;2023-03-14T01:43:42;0.87;;;0.87;;
50012;SDS011;35901;48.694;9.476;2023-03-14T01:48:45;1.47;;;0.80;;
50012;SDS011;35901;48.694;9.476;2023-03-14T01:51:19;0.70;;;0.70;;
50012;SDS011;35901;48.694;9.476;2023-03-14T01:53:50;0.80;;;0.80;;
50012;SDS011;35901;48.694;9.476;2023-03-14T01:56:18;1.13;;;0.80;;
50012;SDS011;35901;48.694;9.476;2023-03-14T01:58:45;1.33;;;0.77;;
50012;SDS011;35901;48.694;9.476;2023-03-14T02:01:14;0.70;;;0.70;;
50012;SDS011;35901;48.694;9.476;2023-03-14T02:03:50;1.10;;;0.93;;
50012;SDS011;35901;48.694;9.476;2023-03-14T02:06:21;0.90;;;0.90;;
50012;SDS011;35901;48.694;9.476;2023-03-14T02:08:52;0.90;;;0.90;;
50012;SDS011;35901;48.694;9.476;2023-03-14T02:11:22;0.80;;;0.80;;
50012;SDS011;35901;48.694;9.476;2023-03-14T02:14:00;1.90;;;0.70;;
50012;SDS011;35901;48.694;9.476;2023-03-14T02:17:03;1.17;;;0.70;;
50012;SDS011;35901;48.694;9.476;2023-03-14T02:22:44;0.67;;;0.67;;
50012;SDS011;35901;48.694;9.476;2023-03-14T02:27:56;0.60;;;0.60;;
50012;SDS011;35901;48.694;9.476;2023-03-14T02:30:24;0.57;;;0.57;;
50012;SDS011;35901;48.694;9.476;2023-03-14T02:32:58;0.80;;;0.80;;
50012;SDS011;35901;48.694;9.476;2023-03-14T02:35:37;0.60;;;0.60;;
50012;SDS011;35901;48.694;9.476;2023-03-14T02:38:19;0.80;;;0.70;;
50012;SDS011;35901;48.694;9.476;2023-03-14T02:41:00;0.80;;;0.80;;
50012;SDS011;35901;48.694;9.476;2023-03-14T02:43:29;0.50;;;0.50;;
50012;SDS011;35901;48.694;9.476;2023-03-14T02:45:59;0.60;;;0.60;;
50012;SDS011;35901;48.694;9.476;2023-03-14T02:48:34;0.70;;;0.70;;
50012;SDS011;35901;48.694;9.476;2023-03-14T02:51:09;0.60;;;0.60;;
50012;SDS011;35901;48.694;9.476;2023-03-14T02:53:36;0.70;;;0.70;;
50012;SDS011;35901;48.694;9.476;2023-03-14T02:56:08;0.70;;;0.70;;
50012;SDS011;35901;48.694;9.476;2023-03-14T02:58:36;0.70;;;0.70;;
50012;SDS011;35901;48.694;9.476;2023-03-14T03:01:17;0.73;;;0.73;;
50012;SDS011;35901;48.694;9.476;2023-03-14T03:03:42;0.67;;;0.67;;
50012;SDS011;35901;48.694;9.476;2023-03-14T03:06:08;0.70;;;0.70;;
50012;SDS011;35901;48.694;9.476;2023-03-14T03:08:34;0.93;;;0.83;;
50012;SDS011;35901;48.694;9.476;2023-03-14T03:10:59;0.50;;;0.50;;
50012;SDS011;35901;48.694;9.476;2023-03-14T03:13:28;0.60;;;0.60;;
50012;SDS011;35901;48.694;9.476;2023-03-14T03:15:55;0.63;;;0.63;;
50012;SDS011;35901;48.694;9.476;2023-03-14T03:18:21;0.50;;;0.50;;
50012;SDS011;35901;48.694;9.476;2023-03-14T03:20:46;0.73;;;0.73;;
50012;SDS011;35901;48.694;9.476;2023-03-14T03:23:12;0.60;;;0.60;;
50012;SDS011;35901;48.694;9.476;2023-03-14T03:25:38;0.60;;;0.60;;
50012;SDS011;35901;48.694;9.476;2023-03-14T03:28:04;0.63;;;0.63;;
50012;SDS011;35901;48.694;9.476;2023-03-14T03:30:36;1.03;;;0.57;;
50012;SDS011;35901;48.694;9.476;2023-03-14T03:33:03;0.60;;;0.60;;
50012;SDS011;35901;48.694;9.476;2023-03-14T03:35:28;0.70;;;0.70;;
50012;SDS011;35901;48.694;9.476;2023-03-14T03:37:55;1.37;;;0.97;;
50012;SDS011;35901;48.694;9.476;2023-03-14T03:40:21;0.70;;;0.70;;
50012;SDS011;35901;48.694;9.476;2023-03-14T03:42:47;0.77;;;0.77;;
50012;SDS011;35901;48.694;9.476;2023-03-14T03:45:13;1.90;;;0.87;;
50012;SDS011;35901;48.694;9.476;2023-03-14T03:47:48;1.30;;;0.70;;
50012;SDS011;35901;48.694;9.476;2023-03-14T03:50:14;1.20;;;0.90;;
50012;SDS011;35901;48.694;9.476;2023-03-14T03:52:39;0.93;;;0.77;;
50012;SDS011;35901;48.694;9.476;2023-03-14T03:55:05;0.83;;;0.70;;
50012;SDS011;35901;48.694;9.476;2023-03-14T03:57:31;0.67;;;0.67;;
50012;SDS011;35901;48.694;9.476;2023-03-14T03:59:57;1.27;;;0.80;;
50012;SDS011;35901;48.694;9.476;2023-03-14T04:02:23;0.70;;;0.70;;
50012;SDS011;35901;48.694;9.476;2023-03-14T04:04:49;1.13;;;0.77;;
50012;SDS011;35901;48.694;9.476;2023-03-14T04:07:16;0.83;;;0.83;;
50012;SDS011;35901;48.694;9.476;2023-03-14T04:09:43;1.20;;;1.00;;
50012;SDS011;35901;48.694;9.476;2023-03-14T04:12:32;0.63;;;0.63;;
50012;SDS011;35901;48.694;9.476;2023-03-14T04:15:03;0.70;;;0.70;;
50012;SDS011;35901;48.694;9.476;2023-03-14T04:17:30;1.17;;;0.80;;
50012;SDS011;35901;48.694;9.476;2023-03-14T04:19:56;1.50;;;0.90;;
50012;SDS011;35901;48.694;9.476;2023-03-14T04:22:29;1.03;;;0.80;;
50012;SDS011;35901;48.694;9.476;2023-03-14T04:24:55;1.13;;;1.00;;
50012;SDS011;35901;48.694;9.476;2023-03-14T04:27:21;1.30;;;0.90;;
50012;SDS011;35901;48.694;9.476;2023-03-14T04:29:47;1.30;;;1.00;;
50012;SDS011;35901;48.694;9.476;2023-03-14T04:32:15;1.03;;;0.87;;
50012;SDS011;35901;48.694;9.476;2023-03-14T04:34:42;1.00;;;0.80;;
50012;SDS011;35901;48.694;9.476;2023-03-14T04:37:07;0.97;;;0.90;;
50012;SDS011;35901;48.694;9.476;2023-03-14T04:39:37;0.90;;;0.80;;
50012;SDS011;35901;48.694;9.476;2023-03-14T04:42:12;1.70;;;1.00;;
50012;SDS011;35901;48.694;9.476;2023-03-14T04:44:37;0.87;;;0.70;;
50012;SDS011;35901;48.694;9.476;2023-03-14T04:47:04;1.60;;;0.77;;
50012;SDS011;35901;48.694;9.476;2023-03-14T04:49:30;1.57;;;1.00;;
50012;SDS011;35901;48.694;9.476;2023-03-14T04:51:56;1.00;;;0.90;;
50012;SDS011;35901;48.694;9.476;2023-03-14T04:54:24;1.50;;;1.27;;
50012;SDS011;35901;48.694;9.476;2023-03-14T04:56:53;1.67;;;0.97;;
50012;SDS011;35901;48.694;9.476;2023-03-14T04:59:19;1.67;;;0.90;;
50012;SDS011;35901;48.694;9.476;2023-03-14T05:01:46;0.83;;;0.83;;
50012;SDS011;35901;48.694;9.476;2023-03-14T05:04:28;2.33;;;1.07;;
50012;SDS011;35901;48.694;9.476;2023-03-14T05:07:11;2.73;;;1.03;;
50012;SDS011;35901;48.694;9.476;2023-03-14T05:09:54;2.30;;;0.90;;
50012;SDS011;35901;48.694;9.476;2023-03-14T05:12:40;1.73;;;0.90;;
50012;SDS011;35901;48.694;9.476;2023-03-14T05:15:26;1.43;;;1.03;;
50012;SDS011;35901;48.694;9.476;2023-03-14T05:18:15;2.03;;;1.00;;
50012;SDS011;35901;48.694;9.476;2023-03-14T05:20:50;2.20;;;0.90;;
50012;SDS011;35901;48.694;9.476;2023-03-14T05:23:37;1.87;;;1.20;;
50012;SDS011;35901;48.694;9.476;2023-03-14T05:26:11;1.57;;;0.90;;
50012;SDS011;35901;48.694;9.476;2023-03-14T05:28:44;2.17;;;1.00;;
50012;SDS011;35901;48.694;9.476;2023-03-14T05:31:48;1.43;;;1.10;;
50012;SDS011;35901;48.694;9.476;2023-03-14T05:34:40;1.37;;;1.27;;
50012;SDS011;35901;48.694;9.476;2023-03-14T05:37:22;1.90;;;1.10;;
50012;SDS011;35901;48.694;9.476;2023-03-14T05:40:08;2.70;;;1.70;;
50012;SDS011;35901;48.694;9.476;2023-03-14T05:42:41;5.10;;;3.20;;
50012;SDS011;35901;48.694;9.476;2023-03-14T05:45:34;7.63;;;4.13;;
50012;SDS011;35901;48.694;9.476;2023-03-14T05:48:12;6.43;;;3.40;;
50012;SDS011;35901;48.694;9.476;2023-03-14T05:50:57;2.33;;;1.83;;
50012;SDS011;35901;48.694;9.476;2023-03-14T05:53:43;3.53;;;2.10;;
50012;SDS011;35901;48.694;9.476;2023-03-14T05:56:32;2.00;;;1.80;;
50012;SDS011;35901;48.694;9.476;2023-03-14T05:59:13;1.40;;;1.30;;
50012;SDS011;35901;48.694;9.476;2023-03-14T06:01:48;2.67;;;1.50;;
50012;SDS011;35901;48.694;9.476;2023-03-14T06:04:17;1.10;;;1.00;;
50012;SDS011;35901;48.694;9.476;2023-03-14T06:06:48;2.73;;;1.17;;
50012;SDS011;35901;48.694;9.476;2023-03-14T06:09:14;1.57;;;1.27;;
50012;SDS011;35901;48.694;9.476;2023-03-14T06:11:42;1.83;;;1.20;;
50012;SDS011;35901;48.694;9.476;2023-03-14T06:14:08;1.53;;;1.30;;
50012;SDS011;35901;48.694;9.476;2023-03-14T06:16:35;1.97;;;1.30;;
50012;SDS011;35901;48.694;9.476;2023-03-14T06:19:02;1.87;;;1.47;;
50012;SDS011;35901;48.694;9.476;2023-03-14T06:21:28;2.37;;;1.50;;
50012;SDS011;35901;48.694;9.476;2023-03-14T06:23:55;2.10;;;1.37;;
50012;SDS011;35901;48.694;9.476;2023-03-14T06:26:21;2.43;;;1.23;;
50012;SDS011;35901;48.694;9.476;2023-03-14T06:28:48;2.03;;;1.10;;
50012;SDS011;35901;48.694;9.476;2023-03-14T06:31:15;2.43;;;1.17;;
50012;SDS011;35901;48.694;9.476;2023-03-14T06:33:50;1.17;;;0.90;;
50012;SDS011;35901;48.694;9.476;2023-03-14T06:36:17;2.10;;;1.10;;
50012;SDS011;35901;48.694;9.476;2023-03-14T06:38:45;2.80;;;1.20;;
50012;SDS011;35901;48.694;9.476;2023-03-14T06:41:12;1.67;;;1.40;;
50012;SDS011;35901;48.694;9.476;2023-03-14T06:43:40;1.80;;;1.00;;
50012;SDS011;35901;48.694;9.476;2023-03-14T06:46:07;2.63;;;1.10;;
50012;SDS011;35901;48.694;9.476;2023-03-14T06:48:35;2.00;;;1.20;;
50012;SDS011;35901;48.694;9.476;2023-03-14T06:51:01;2.43;;;1.10;;
50012;SDS011;35901;48.694;9.476;2023-03-14T06:53:26;1.70;;;1.07;;
50012;SDS011;35901;48.694;9.476;2023-03-14T06:55:52;2.43;;;1.00;;
50012;SDS011;35901;48.694;9.476;2023-03-14T06:58:19;1.00;;;0.90;;
50012;SDS011;35901;48.694;9.476;2023-03-14T07:00:45;1.33;;;0.90;;
50012;SDS011;35901;48.694;9.476;2023-03-14T07:03:14;3.03;;;1.00;;
50012;SDS011;35901;48.694;9.476;2023-03-14T07:05:43;1.70;;;0.80;;
50012;SDS011;35901;48.694;9.476;2023-03-14T07:08:09;0.77;;;0.77;;
50012;SDS011;35901;48.694;9.476;2023-03-14T07:10:35;2.47;;;1.07;;
50012;SDS011;35901;48.694;9.476;2023-03-14T07:13:00;1.10;;;0.80;;
50012;SDS011;35901;48.694;9.476;2023-03-14T07:15:29;1.67;;;1.10;;
50012;SDS011;35901;48.694;9.476;2023-03-14T07:18:00;1.03;;;1.00;;
50012;SDS011;35901;48.694;9.476;2023-03-14T07:20:27;1.53;;;1.20;;
50012;SDS011;35901;48.694;9.476;2023-03-14T07:22:54;3.07;;;1.53;;
50012;SDS011;35901;48.694;9.476;2023-03-14T07:25:29;2.10;;;1.30;;
50012;SDS011;35901;48.694;9.476;2023-03-14T07:27:55;1.47;;;1.00;;
50012;SDS011;35901;48.694;9.476;2023-03-14T07:30:21;2.37;;;1.00;;
50012;SDS011;35901;48.694;9.476;2023-03-14T07:32:47;1.40;;;1.17;;
50012;SDS011;35901;48.694;9.476;2023-03-14T07:35:13;1.27;;;1.10;;
50012;SDS011;35901;48.694;9.476;2023-03-14T07:37:40;2.57;;;0.90;;
50012;SDS011;35901;48.694;9.476;2023-03-14T07:40:06;2.07;;;0.97;;
50012;SDS011;35901;48.694;9.476;2023-03-14T07:42:34;1.10;;;1.00;;
50012;SDS011;35901;48.694;9.476;2023-03-14T07:45:20;2.60;;;1.13;;
50012;SDS011;35901;48.694;9.476;2023-03-14T07:47:46;1.57;;;0.80;;
50012;SDS011;35901;48.694;9.476;2023-03-14T07:50:11;0.80;;;0.73;;
50012;SDS011;35901;48.694;9.476;2023-03-14T07:52:37;0.90;;;0.80;;
50012;SDS011;35901;48.694;9.476;2023-03-14T07:55:03;2.23;;;1.03;;
50012;SDS011;35901;48.694;9.476;2023-03-14T07:57:29;1.33;;;0.90;;
50012;SDS011;35901;48.694;9.476;2023-03-14T07:59:54;2.70;;;1.00;;
50012;SDS011;35901;48.694;9.476;2023-03-14T08:02:20;0.90;;;0.90;;
50012;SDS011;35901;48.694;9.476;2023-03-14T08:04:47;1.13;;;0.73;;
50012;SDS011;35901;48.694;9.476;2023-03-14T08:07:14;1.40;;;1.00;;
50012;SDS011;35901;48.694;9.476;2023-03-14T08:09:39;1.57;;;0.80;;
50012;SDS011;35901;48.694;9.476;2023-03-14T08:12:05;1.47;;;0.87;;
50012;SDS011;35901;48.694;9.476;2023-03-14T08:14:31;0.83;;;0.70;;
50012;SDS011;35901;48.694;9.476;2023-03-14T08:16:57;1.20;;;0.97;;
50012;SDS011;35901;48.694;9.476;2023-03-14T08:19:23;0.70;;;0.70;;
50012;SDS011;35901;48.694;9.476;2023-03-14T08:21:49;1.20;;;0.80;;
50012;SDS011;35901;48.694;9.476;2023-03-14T08:24:15;1.83;;;0.70;;
50012;SDS011;35901;48.694;9.476;2023-03-14T08:26:41;0.80;;;0.80;;
50012;SDS011;35901;48.694;9.476;2023-03-14T08:29:06;0.70;;;0.70;;
50012;SDS011;35901;48.694;9.476;2023-03-14T08:31:33;1.53;;;0.90;;
50012;SDS011;35901;48.694;9.476;2023-03-14T08:34:00;1.00;;;0.90;;
50012;SDS011;35901;48.694;9.476;2023-03-14T08:36:27;1.77;;;0.70;;
50012;SDS011;35901;48.694;9.476;2023-03-14T08:38:52;1.03;;;0.80;;
50012;SDS011;35901;48.694;9.476;2023-03-14T08:41:18;0.70;;;0.70;;
50012;SDS011;35901;48.694;9.476;2023-03-14T08:43:44;1.13;;;0.80;;
50012;SDS011;35901;48.694;9.476;2023-03-14T08:46:09;0.83;;;0.80;;
50012;SDS011;35901;48.694;9.476;2023-03-14T08:48:35;0.93;;;0.80;;
50012;SDS011;35901;48.694;9.476;2023-03-14T08:51:07;0.77;;;0.67;;
50012;SDS011;35901;48.694;9.476;2023-03-14T08:53:35;1.60;;;1.00;;
50012;SDS011;35901;48.694;9.476;2023-03-14T08:56:01;0.87;;;0.77;;
50012;SDS011;35901;48.694;9.476;2023-03-14T08:58:28;1.13;;;0.73;;
50012;SDS011;35901;48.694;9.476;2023-03-14T09:00:54;1.73;;;1.00;;
50012;SDS011;35901;48.694;9.476;2023-03-14T09:03:20;0.60;;;0.60;;
50012;SDS011;35901;48.694;9.476;2023-03-14T09:05:48;0.73;;;0.70;;
50012;SDS011;35901;48.694;9.476;2023-03-14T09:08:14;0.80;;;0.80;;
50012;SDS011;35901;48.694;9.476;2023-03-14T09:10:40;0.90;;;0.70;;
50012;SDS011;35901;48.694;9.476;2023-03-14T09:13:05;1.03;;;0.90;;
50012;SDS011;35901;48.694;9.476;2023-03-14T09:15:31;0.80;;;0.80;;
50012;SDS011;35901;48.694;9.476;2023-03-14T09:17:57;2.10;;;0.80;;
50012;SDS011;35901;48.694;9.476;2023-03-14T09:20:23;1.07;;;0.90;;
50012;SDS011;35901;48.694;9.476;2023-03-14T09:22:49;1.00;;;0.67;;
50012;SDS011;35901;48.694;9.476;2023-03-14T09:25:15;0.63;;;0.50;;
50012;SDS011;35901;48.694;9.476;2023-03-14T09:27:40;1.57;;;0.97;;
50012;SDS011;35901;48.694;9.476;2023-03-14T09:30:06;1.13;;;0.70;;
50012;SDS011;35901;48.694;9.476;2023-03-14T09:32:32;0.60;;;0.57;;
50012;SDS011;35901;48.694;9.476;2023-03-14T09:34:58;0.50;;;0.50;;
50012;SDS011;35901;48.694;9.476;2023-03-14T09:37:24;0.83;;;0.67;;
50012;SDS011;35901;48.694;9.476;2023-03-14T09:39:50;0.70;;;0.63;;
50012;SDS011;35901;48.694;9.476;2023-03-14T09:42:20;0.60;;;0.60;;
50012;SDS011;35901;48.694;9.476;2023-03-14T09:44:56;0.77;;;0.77;;
50012;SDS011;35901;48.694;9.476;2023-03-14T09:47:25;1.30;;;0.63;;
50012;SDS011;35901;48.694;9.476;2023-03-14T09:49:52;0.93;;;0.50;;
50012;SDS011;35901;48.694;9.476;2023-03-14T09:52:31;0.90;;;0.60;;
50012;SDS011;35901;48.694;9.476;2023-03-14T09:55:02;0.73;;;0.70;;
50012;SDS011;35901;48.694;9.476;2023-03-14T09:57:38;0.70;;;0.70;;
50012;SDS011;35901;48.694;9.476;2023-03-14T10:00:48;0.60;;;0.60;;
50012;SDS011;35901;48.694;9.476;2023-03-14T10:05:25;0.50;;;0.50;;
50012;SDS011;35901;48.694;9.476;2023-03-14T10:07:52;2.10;;;0.43;;
50012;SDS011;35901;48.694;9.476;2023-03-14T10:10:22;0.97;;;0.60;;
50012;SDS011;35901;48.694;9.476;2023-03-14T10:15:30;1.07;;;0.67;;
50012;SDS011;35901;48.694;9.476;2023-03-14T10:17:58;0.50;;;0.50;;
50012;SDS011;35901;48.694;9.476;2023-03-14T10:23:05;0.60;;;0.50;;
50012;SDS011;35901;48.694;9.476;2023-03-14T10:28:32;0.83;;;0.60;;
50012;SDS011;35901;48.694;9.476;2023-03-14T10:31:18;0.60;;;0.60;;
50012;SDS011;35901;48.694;9.476;2023-03-14T10:34:03;0.83;;;0.80;;
50012;SDS011;35901;48.694;9.476;2023-03-14T10:36:30;1.23;;;0.60;;
50012;SDS011;35901;48.694;9.476;2023-03-14T10:39:21;2.17;;;0.70;;
50012;SDS011;35901;48.694;9.476;2023-03-14T10:41:54;1.37;;;0.60;;
50012;SDS011;35901;48.694;9.476;2023-03-14T10:44:27;0.57;;;0.57;;
50012;SDS011;35901;48.694;9.476;2023-03-14T10:47:01;0.50;;;0.50;;
50012;SDS011;35901;48.694;9.476;2023-03-14T10:49:30;0.50;;;0.50;;
50012;SDS011;35901;48.694;9.476;2023-03-14T10:54:39;0.50;;;0.50;;
50012;SDS011;35901;48.694;9.476;2023-03-14T10:57:04;0.60;;;0.60;;
50012;SDS011;35901;48.694;9.476;2023-03-14T10:59:36;0.77;;;0.50;;
50012;SDS011;35901;48.694;9.476;2023-03-14T11:05:03;0.70;;;0.60;;
50012;SDS011;35901;48.694;9.476;2023-03-14T11:07:51;0.60;;;0.60;;
50012;SDS011;35901;48.694;9.476;2023-03-14T11:24:24;0.60;;;0.60;;
50012;SDS011;35901;48.694;9.476;2023-03-14T11:27:17;1.53;;;0.60;;
50012;SDS011;35901;48.694;9.476;2023-03-14T11:40:48;0.90;;;0.57;;
50012;SDS011;35901;48.694;9.476;2023-03-14T11:43:20;0.50;;;0.50;;
50012;SDS011;35901;48.694;9.476;2023-03-14T11:46:34;0.60;;;0.60;;
50012;SDS011;35901;48.694;9.476;2023-03-14T11:49:14;0.60;;;0.60;;
50012;SDS011;35901;48.694;9.476;2023-03-14T11:51:47;0.60;;;0.60;;
50012;SDS011;35901;48.694;9.476;2023-03-14T11:54:39;0.63;;;0.50;;
50012;SDS011;35901;48.694;9.476;2023-03-14T11:57:26;0.50;;;0.50;;
50012;SDS011;35901;48.694;9.476;2023-03-14T12:07:57;0.47;;;0.47;;
50012;SDS011;35901;48.694;9.476;2023-03-14T12:10:51;0.50;;;0.50;;
50012;SDS011;35901;48.694;9.476;2023-03-14T12:13:19;0.70;;;0.70;;
50012;SDS011;35901;48.694;9.476;2023-03-14T12:15:58;0.97;;;0.60;;
50012;SDS011;35901;48.694;9.476;2023-03-14T12:18:36;0.60;;;0.60;;
50012;SDS011;35901;48.694;9.476;2023-03-14T12:21:05;0.50;;;0.50;;
50012;SDS011;35901;48.694;9.476;2023-03-14T12:23:37;0.50;;;0.50;;
50012;SDS011;35901;48.694;9.476;2023-03-14T12:26:21;0.60;;;0.60;;
50012;SDS011;35901;48.694;9.476;2023-03-14T12:28:51;0.50;;;0.50;;
50012;SDS011;35901;48.694;9.476;2023-03-14T12:31:44;0.70;;;0.70;;
50012;SDS011;35901;48.694;9.476;2023-03-14T12:39:22;1.27;;;0.70;;
50012;SDS011;35901;48.694;9.476;2023-03-14T12:42:00;0.47;;;0.47;;
50012;SDS011;35901;48.694;9.476;2023-03-14T12:44:43;0.90;;;0.90;;
50012;SDS011;35901;48.694;9.476;2023-03-14T12:49:48;0.70;;;0.70;;
50012;SDS011;35901;48.694;9.476;2023-03-14T12:55:20;1.90;;;0.80;;
50012;SDS011;35901;48.694;9.476;2023-03-14T12:58:03;2.57;;;0.87;;
50012;SDS011;35901;48.694;9.476;2023-03-14T13:00:54;0.63;;;0.63;;
50012;SDS011;35901;48.694;9.476;2023-03-14T13:03:22;0.93;;;0.93;;
50012;SDS011;35901;48.694;9.476;2023-03-14T13:05:56;0.90;;;0.90;;
50012;SDS011;35901;48.694;9.476;2023-03-14T13:11:01;0.77;;;0.60;;
50012;SDS011;35901;48.694;9.476;2023-03-14T13:13:29;0.80;;;0.80;;
50012;SDS011;35901;48.694;9.476;2023-03-14T13:15:55;1.50;;;0.70;;
50012;SDS011;35901;48.694;9.476;2023-03-14T13:18:40;0.70;;;0.53;;
50012;SDS011;35901;48.694;9.476;2023-03-14T13:21:24;0.80;;;0.73;;
50012;SDS011;35901;48.694;9.476;2023-03-14T13:23:58;1.03;;;0.80;;
50012;SDS011;35901;48.694;9.476;2023-03-14T13:26:32;1.87;;;0.80;;
50012;SDS011;35901;48.694;9.476;2023-03-14T13:29:16;1.67;;;1.00;;
50012;SDS011;35901;48.694;9.476;2023-03-14T13:31:45;0.90;;;0.90;;
50012;SDS011;35901;48.694;9.476;2023-03-14T13:34:12;1.33;;;0.70;;
50012;SDS011;35901;48.694;9.476;2023-03-14T13:36:38;1.07;;;0.77;;
50012;SDS011;35901;48.694;9.476;2023-03-14T13:39:06;1.60;;;0.60;;
50012;SDS011;35901;48.694;9.476;2023-03-14T13:41:38;0.60;;;0.60;;
50012;SDS011;35901;48.694;9.476;2023-03-14T13:44:09;1.00;;;0.90;;
50012;SDS011;35901;48.694;9.476;2023-03-14T13:46:42;3.13;;;0.90;;
50012;SDS011;35901;48.694;9.476;2023-03-14T13:49:13;0.40;;;0.40;;
50012;SDS011;35901;48.694;9.476;2023-03-14T13:51:47;1.00;;;0.90;;
50012;SDS011;35901;48.694;9.476;2023-03-14T13:54:14;0.60;;;0.60;;
50012;SDS011;35901;48.694;9.476;2023-03-14T13:56:41;1.17;;;0.90;;
50012;SDS011;35901;48.694;9.476;2023-03-14T14:01:56;0.93;;;0.90;;
50012;SDS011;35901;48.694;9.476;2023-03-14T14:04:25;1.47;;;1.07;;
50012;SDS011;35901;48.694;9.476;2023-03-14T14:07:01;1.50;;;0.90;;
50012;SDS011;35901;48.694;9.476;2023-03-14T14:09:37;2.10;;;1.00;;
50012;SDS011;35901;48.694;9.476;2023-03-14T14:12:05;3.70;;;1.00;;
50012;SDS011;35901;48.694;9.476;2023-03-14T14:14:51;1.40;;;1.00;;
50012;SDS011;35901;48.694;9.476;2023-03-14T14:17:23;1.50;;;1.00;;
50012;SDS011;35901;48.694;9.476;2023-03-14T14:20:14;1.40;;;0.80;;
50012;SDS011;35901;48.694;9.476;2023-03-14T14:23:00;2.57;;;0.70;;
50012;SDS011;35901;48.694;9.476;2023-03-14T14:25:31;1.77;;;0.80;;
50012;SDS011;35901;48.694;9.476;2023-03-14T14:27:58;2.53;;;1.20;;
50012;SDS011;35901;48.694;9.476;2023-03-14T14:30:39;0.87;;;0.70;;
50012;SDS011;35901;48.694;9.476;2023-03-14T14:33:12;0.80;;;0.80;;
50012;SDS011;35901;48.694;9.476;2023-03-14T14:35:52;0.77;;;0.70;;
50012;SDS011;35901;48.694;9.476;2023-03-14T14:38:23;1.90;;;0.80;;
50012;SDS011;35901;48.694;9.476;2023-03-14T14:40:50;1.07;;;0.80;;
50012;SDS011;35901;48.694;9.476;2023-03-14T14:43:20;0.80;;;0.80;;
50012;SDS011;35901;48.694;9.476;2023-03-14T14:45:52;1.00;;;0.90;;
50012;SDS011;35901;48.694;9.476;2023-03-14T14:48:23;0.80;;;0.80;;
50012;SDS011;35901;48.694;9.476;2023-03-14T14:50:58;1.63;;;1.00;;
50012;SDS011;35901;48.694;9.476;2023-03-14T14:56:15;0.73;;;0.73;;
50012;SDS011;35901;48.694;9.476;2023-03-14T14:58:47;1.90;;;0.80;;
50012;SDS011;35901;48.694;9.476;2023-03-14T15:01:14;2.17;;;0.87;;
50012;SDS011;35901;48.694;9.476;2023-03-14T15:03:41;0.97;;;0.70;;
50012;SDS011;35901;48.694;9.476;2023-03-14T15:06:08;3.27;;;1.20;;
50012;SDS011;35901;48.694;9.476;2023-03-14T15:08:38;1.80;;;1.10;;
50012;SDS011;35901;48.694;9.476;2023-03-14T15:11:03;2.13;;;1.20;;
50012;SDS011;35901;48.694;9.476;2023-03-14T15:13:29;2.03;;;1.10;;
50012;SDS011;35901;48.694;9.476;2023-03-14T15:15:55;1.13;;;1.00;;
50012;SDS011;35901;48.694;9.476;2023-03-14T15:18:22;2.67;;;1.00;;
50012;SDS011;35901;48.694;9.476;2023-03-14T15:20:49;2.50;;;1.30;;
50012;SDS011;35901;48.694;9.476;2023-03-14T15:23:17;2.10;;;1.10;;
50012;SDS011;35901;48.694;9.476;2023-03-14T15:25:44;1.37;;;1.00;;
50012;SDS011;35901;48.694;9.476;2023-03-14T15:30:46;1.40;;;1.00;;
50012;SDS011;35901;48.694;9.476;2023-03-14T15:33:19;1.70;;;1.13;;
50012;SDS011;35901;48.694;9.476;2023-03-14T15:35:46;2.70;;;1.30;;
50012;SDS011;35901;48.694;9.476;2023-03-14T15:38:17;1.30;;;1.20;;
50012;SDS011;35901;48.694;9.476;2023-03-14T15:40:51;2.00;;;1.37;;
50012;SDS011;35901;48.694;9.476;2023-03-14T15:43:18;4.50;;;1.33;;
50012;SDS011;35901;48.694;9.476;2023-03-14T15:45:44;2.87;;;1.30;;
50012;SDS011;35901;48.694;9.476;2023-03-14T15:48:17;2.50;;;1.20;;
50012;SDS011;35901;48.694;9.476;2023-03-14T15:50:44;1.67;;;1.10;;
50012;SDS011;35901;48.694;9.476;2023-03-14T15:53:10;2.00;;;1.80;;
50012;SDS011;35901;48.694;9.476;2023-03-14T15:55:36;2.63;;;1.30;;
50012;SDS011;35901;48.694;9.476;2023-03-14T15:58:02;1.87;;;1.10;;
50012;SDS011;35901;48.694;9.476;2023-03-14T16:00:28;1.80;;;1.10;;
50012;SDS011;35901;48.694;9.476;2023-03-14T16:02:54;2.70;;;1.00;;
50012;SDS011;35901;48.694;9.476;2023-03-14T16:05:20;4.17;;;2.90;;
50012;SDS011;35901;48.694;9.476;2023-03-14T16:07:46;2.07;;;1.23;;
50012;SDS011;35901;48.694;9.476;2023-03-14T16:10:12;1.70;;;1.60;;
50012;SDS011;35901;48.694;9.476;2023-03-14T16:12:39;3.00;;;1.50;;
50012;SDS011;35901;48.694;9.476;2023-03-14T16:15:05;3.23;;;2.00;;
50012;SDS011;35901;48.694;9.476;2023-03-14T16:17:32;3.87;;;2.50;;
50012;SDS011;35901;48.694;9.476;2023-03-14T16:19:58;3.73;;;2.20;;
50012;SDS011;35901;48.694;9.476;2023-03-14T16:22:23;4.07;;;2.00;;
50012;SDS011;35901;48.694;9.476;2023-03-14T16:24:49;2.10;;;1.70;;
50012;SDS011;35901;48.694;9.476;2023-03-14T16:27:15;1.90;;;1.30;;